createdAt,value
2023-03-29T00:00:13.123Z,5.52
2023-03-29T00:01:13.226Z,5.50
2023-03-29T00:02:13.125Z,5.52
2023-03-29T00:03:13.448Z,5.49
2023-03-29T00:04:13.276Z,5.46
2023-03-29T00:05:13.797Z,5.45
2023-03-29T00:06:13.262Z,5.45
2023-03-29T00:07:13.068Z,5.45
2023-03-29T00:08:13.162Z,5.46
2023-03-29T00:09:13.145Z,5.46
2023-03-29T00:10:12.991Z,5.46
2023-03-29T00:11:13.055Z,5.45
2023-03-29T00:12:13.172Z,5.43
2023-03-29T00:13:12.958Z,5.46
2023-03-29T00:14:13.099Z,5.46
2023-03-29T00:15:12.943Z,5.48
2023-03-29T00:16:13.421Z,5.46
2023-03-29T00:17:13.131Z,5.48
2023-03-29T00:18:13.196Z,5.49
2023-03-29T00:19:13.130Z,5.50
2023-03-29T00:20:12.973Z,5.52
2023-03-29T00:21:12.873Z,5.49
2023-03-29T00:22:12.965Z,5.50
2023-03-29T00:23:13.082Z,5.53
2023-03-29T00:24:12.987Z,5.56
2023-03-29T00:25:13.200Z,5.57
2023-03-29T00:26:12.840Z,5.57
2023-03-29T00:27:12.820Z,5.60
2023-03-29T00:28:12.866Z,5.60
2023-03-29T00:29:13.029Z,5.63
2023-03-29T00:30:12.876Z,5.63
2023-03-29T00:31:12.830Z,5.63
2023-03-29T00:32:12.935Z,5.64
2023-03-29T00:33:13.351Z,5.64
2023-03-29T00:34:12.807Z,5.64
2023-03-29T00:35:12.736Z,5.66
2023-03-29T00:36:13.070Z,5.64
2023-03-29T00:37:12.816Z,5.66
2023-03-29T00:38:12.792Z,5.66
2023-03-29T00:39:12.962Z,5.63
2023-03-29T00:40:12.926Z,5.67
2023-03-29T00:41:12.877Z,5.64
2023-03-29T00:42:13.291Z,5.63
2023-03-29T00:43:12.708Z,5.64
2023-03-29T00:44:12.835Z,5.64
2023-03-29T00:45:12.632Z,5.64
2023-03-29T00:46:12.666Z,5.64
2023-03-29T00:47:12.580Z,5.64
2023-03-29T00:48:12.655Z,5.66
2023-03-29T00:49:12.701Z,5.67
2023-03-29T00:50:12.616Z,5.70
2023-03-29T00:51:12.650Z,5.71
2023-03-29T00:52:12.674Z,5.73
2023-03-29T00:53:12.572Z,5.75
2023-03-29T00:54:12.772Z,5.74
2023-03-29T00:55:12.555Z,5.74
2023-03-29T00:56:12.549Z,5.75
2023-03-29T00:57:12.668Z,5.71
2023-03-29T00:58:12.520Z,5.73
2023-03-29T00:59:12.558Z,5.71
2023-03-29T01:00:12.547Z,5.73
2023-03-29T01:01:12.674Z,5.74
2023-03-29T01:02:12.746Z,5.74
2023-03-29T01:03:12.652Z,5.73
2023-03-29T01:04:12.496Z,5.74
2023-03-29T01:05:12.526Z,5.74
2023-03-29T01:06:12.446Z,5.75
2023-03-29T01:07:12.557Z,5.75
2023-03-29T01:08:12.725Z,5.74
2023-03-29T01:09:12.398Z,5.75
2023-03-29T01:10:12.707Z,5.75
2023-03-29T01:11:12.376Z,5.75
2023-03-29T01:12:12.482Z,5.75
2023-03-29T01:13:12.565Z,5.75
2023-03-29T01:14:12.433Z,5.77
2023-03-29T01:15:12.495Z,5.78
2023-03-29T01:16:12.403Z,5.77
2023-03-29T01:17:12.355Z,5.77
2023-03-29T01:18:12.648Z,5.75
2023-03-29T01:19:12.340Z,5.78
2023-03-29T01:20:12.576Z,5.77
2023-03-29T01:21:12.309Z,5.77
2023-03-29T01:22:12.458Z,5.75
2023-03-29T01:23:12.287Z,5.78
2023-03-29T01:24:12.373Z,5.81
2023-03-29T01:25:12.489Z,5.82
2023-03-29T01:26:12.236Z,5.85
2023-03-29T01:27:12.329Z,5.83
2023-03-29T01:28:12.398Z,5.85
2023-03-29T01:29:12.204Z,5.86
2023-03-29T01:30:12.264Z,5.85
2023-03-29T01:31:12.228Z,5.88
2023-03-29T01:32:12.385Z,5.86
2023-03-29T01:33:12.312Z,5.86
2023-03-29T01:34:12.401Z,5.85
2023-03-29T01:35:12.156Z,5.85
2023-03-29T01:36:12.225Z,5.85
2023-03-29T01:37:12.145Z,5.86
2023-03-29T01:38:12.162Z,5.86
2023-03-29T01:39:12.154Z,5.88
2023-03-29T01:40:12.188Z,5.89
2023-03-29T01:41:12.140Z,5.89
2023-03-29T01:42:12.166Z,5.88
2023-03-29T01:43:12.228Z,5.88
2023-03-29T01:44:12.069Z,5.88
2023-03-29T01:45:12.239Z,5.91
2023-03-29T01:46:12.134Z,5.89
2023-03-29T01:47:12.303Z,5.91
2023-03-29T01:48:12.517Z,5.93
2023-03-29T01:49:12.258Z,5.93
2023-03-29T01:50:12.122Z,5.96
2023-03-29T01:51:12.245Z,5.96
2023-03-29T01:52:11.966Z,5.98
2023-03-29T01:53:12.013Z,6.00
2023-03-29T01:54:12.219Z,5.98
2023-03-29T01:55:11.973Z,5.98
2023-03-29T01:56:12.084Z,6.01
2023-03-29T01:57:12.175Z,6.01
2023-03-29T01:58:12.004Z,6.03
2023-03-29T01:59:12.132Z,6.03
2023-03-29T02:00:11.944Z,6.04
2023-03-29T02:01:11.981Z,6.04
2023-03-29T02:02:12.110Z,6.04
2023-03-29T02:03:12.024Z,6.04
2023-03-29T02:04:11.968Z,6.06
2023-03-29T02:05:12.464Z,6.06
2023-03-29T02:06:12.084Z,6.07
2023-03-29T02:07:12.029Z,6.10
2023-03-29T02:08:11.960Z,6.10
2023-03-29T02:09:11.840Z,6.11
2023-03-29T02:10:12.057Z,6.13
2023-03-29T02:11:12.714Z,6.13
2023-03-29T02:12:11.846Z,6.13
2023-03-29T02:13:12.005Z,6.13
2023-03-29T02:14:11.975Z,6.14
2023-03-29T02:15:11.961Z,6.13
2023-03-29T02:16:11.813Z,6.11
2023-03-29T02:17:11.937Z,6.11
2023-03-29T02:18:12.030Z,6.11
2023-03-29T02:19:11.874Z,6.11
2023-03-29T02:20:11.729Z,6.11
2023-03-29T02:21:11.688Z,6.10
2023-03-29T02:22:11.791Z,6.13
2023-03-29T02:23:11.817Z,6.11
2023-03-29T02:24:11.808Z,6.13
2023-03-29T02:25:11.684Z,6.16
2023-03-29T02:26:11.662Z,6.13
2023-03-29T02:27:11.817Z,6.14
2023-03-29T02:28:11.702Z,6.14
2023-03-29T02:29:11.847Z,6.16
2023-03-29T02:30:11.627Z,6.14
2023-03-29T02:31:11.673Z,6.16
2023-03-29T02:32:11.606Z,6.16
2023-03-29T02:33:11.656Z,6.18
2023-03-29T02:34:11.596Z,6.14
2023-03-29T02:35:11.601Z,6.16
2023-03-29T02:36:11.868Z,6.13
2023-03-29T02:37:11.667Z,6.16
2023-03-29T02:38:11.798Z,6.14
2023-03-29T02:39:11.784Z,6.13
2023-03-29T02:40:11.759Z,6.10
2023-03-29T02:41:11.852Z,6.11
2023-03-29T02:42:11.581Z,6.09
2023-03-29T02:43:11.559Z,6.10
2023-03-29T02:44:11.646Z,6.10
2023-03-29T02:45:11.475Z,6.13
2023-03-29T02:46:11.704Z,6.18
2023-03-29T02:47:11.587Z,6.19
2023-03-29T02:48:11.484Z,6.22
2023-03-29T02:49:11.471Z,6.26
2023-03-29T02:50:11.460Z,6.25
2023-03-29T02:51:11.423Z,6.26
2023-03-29T02:52:11.445Z,6.29
2023-03-29T02:53:12.072Z,6.30
2023-03-29T02:54:11.419Z,6.32
2023-03-29T02:55:11.579Z,6.33
2023-03-29T02:56:11.405Z,6.33
2023-03-29T02:57:11.537Z,6.35
2023-03-29T02:58:11.451Z,6.32
2023-03-29T02:59:11.506Z,6.32
2023-03-29T03:00:11.777Z,6.32
2023-03-29T03:01:11.337Z,6.35
2023-03-29T03:02:11.595Z,6.35
2023-03-29T03:03:11.395Z,6.36
2023-03-29T03:04:11.343Z,6.41
2023-03-29T03:05:11.331Z,6.46
2023-03-29T03:06:11.317Z,6.44
2023-03-29T03:07:11.240Z,6.44
2023-03-29T03:08:11.300Z,6.46
2023-03-29T03:09:11.260Z,6.44
2023-03-29T03:10:11.225Z,6.46
2023-03-29T03:11:11.417Z,6.47
2023-03-29T03:12:11.330Z,6.47
2023-03-29T03:13:11.906Z,6.47
2023-03-29T03:14:11.237Z,6.47
2023-03-29T03:15:11.218Z,6.46
2023-03-29T03:16:11.260Z,6.47
2023-03-29T03:17:11.324Z,6.51
2023-03-29T03:18:11.220Z,6.51
2023-03-29T03:19:11.196Z,6.53
2023-03-29T03:20:11.200Z,6.51
2023-03-29T03:21:11.298Z,6.50
2023-03-29T03:22:11.102Z,6.51
2023-03-29T03:23:11.124Z,6.56
2023-03-29T03:24:11.143Z,6.54
2023-03-29T03:25:11.056Z,6.58
2023-03-29T03:26:11.385Z,6.59
2023-03-29T03:27:11.169Z,6.59
2023-03-29T03:28:11.304Z,6.63
2023-03-29T03:29:11.168Z,6.65
2023-03-29T03:30:11.247Z,6.65
2023-03-29T03:31:11.147Z,6.65
2023-03-29T03:32:11.226Z,6.65
2023-03-29T03:33:11.024Z,6.65
2023-03-29T03:34:11.446Z,6.66
2023-03-29T03:35:10.999Z,6.66
2023-03-29T03:36:11.094Z,6.68
2023-03-29T03:37:11.086Z,6.68
2023-03-29T03:38:10.957Z,6.69
2023-03-29T03:39:11.430Z,6.66
2023-03-29T03:40:10.924Z,6.65
2023-03-29T03:41:11.042Z,6.62
2023-03-29T03:42:10.975Z,6.61
2023-03-29T03:43:11.067Z,6.62
2023-03-29T03:44:11.094Z,6.61
2023-03-29T03:45:10.931Z,6.59
2023-03-29T03:46:10.959Z,6.59
2023-03-29T03:47:11.008Z,6.59
2023-03-29T03:48:10.997Z,6.58
2023-03-29T03:49:10.963Z,6.59
2023-03-29T03:50:10.842Z,6.56
2023-03-29T03:51:10.840Z,6.54
2023-03-29T03:52:10.852Z,6.56
2023-03-29T03:53:10.817Z,6.54
2023-03-29T03:54:11.230Z,6.54
2023-03-29T03:55:11.073Z,6.53
2023-03-29T03:56:10.823Z,6.53
2023-03-29T03:57:10.819Z,6.51
2023-03-29T03:58:10.992Z,6.53
2023-03-29T03:59:10.820Z,6.54
2023-03-29T04:00:10.840Z,6.54
2023-03-29T04:01:10.724Z,6.54
2023-03-29T04:02:10.772Z,6.54
2023-03-29T04:03:11.246Z,6.56
2023-03-29T04:04:10.902Z,6.56
2023-03-29T04:05:10.718Z,6.53
2023-03-29T04:06:10.925Z,6.53
2023-03-29T04:07:10.702Z,6.53
2023-03-29T04:08:10.659Z,6.50
2023-03-29T04:09:10.698Z,6.51
2023-03-29T04:10:10.623Z,6.50
2023-03-29T04:11:10.726Z,6.48
2023-03-29T04:12:10.632Z,6.47
2023-03-29T04:13:10.604Z,6.47
2023-03-29T04:14:10.625Z,6.46
2023-03-29T04:15:10.620Z,6.44
2023-03-29T04:16:10.741Z,6.43
2023-03-29T04:17:10.572Z,6.43
2023-03-29T04:18:10.654Z,6.43
2023-03-29T04:19:10.579Z,6.41
2023-03-29T04:20:10.603Z,6.41
2023-03-29T04:21:10.513Z,6.38
2023-03-29T04:22:10.524Z,6.36
2023-03-29T04:23:10.742Z,6.35
2023-03-29T04:24:10.949Z,6.35
2023-03-29T04:25:10.574Z,6.33
2023-03-29T04:26:10.497Z,6.33
2023-03-29T04:27:10.513Z,6.33
2023-03-29T04:28:10.637Z,6.32
2023-03-29T04:29:10.471Z,6.32
2023-03-29T04:30:10.627Z,6.30
2023-03-29T04:31:10.678Z,6.30
2023-03-29T04:32:10.441Z,6.29
2023-03-29T04:33:10.632Z,6.30
2023-03-29T04:34:10.637Z,6.29
2023-03-29T04:35:10.414Z,6.28
2023-03-29T04:36:10.635Z,6.29
2023-03-29T04:37:10.507Z,6.30
2023-03-29T04:38:10.369Z,6.28
2023-03-29T04:39:10.320Z,6.30
2023-03-29T04:40:10.345Z,6.30
2023-03-29T04:41:10.760Z,6.33
2023-03-29T04:42:10.331Z,6.32
2023-03-29T04:43:10.338Z,6.33
2023-03-29T04:44:10.334Z,6.36
2023-03-29T04:45:10.419Z,6.40
2023-03-29T04:46:10.343Z,6.38
2023-03-29T04:47:10.271Z,6.41
2023-03-29T04:48:10.344Z,6.41
2023-03-29T04:49:10.284Z,6.41
2023-03-29T04:50:10.302Z,6.43
2023-03-29T04:51:10.237Z,6.43
2023-03-29T04:52:10.362Z,6.40
2023-03-29T04:53:10.271Z,6.40
2023-03-29T04:54:10.365Z,6.36
2023-03-29T04:55:10.284Z,6.38
2023-03-29T04:56:10.392Z,6.36
2023-03-29T04:57:10.253Z,6.35
2023-03-29T04:58:10.209Z,6.33
2023-03-29T04:59:10.342Z,6.33
2023-03-29T05:00:10.224Z,6.30
2023-03-29T05:01:10.234Z,6.30
2023-03-29T05:02:10.412Z,6.30
2023-03-29T05:03:10.185Z,6.28
2023-03-29T05:04:12.550Z,6.29
2023-03-29T05:05:10.264Z,6.28
2023-03-29T05:06:10.522Z,6.26
2023-03-29T05:07:10.273Z,6.26
2023-03-29T05:08:10.667Z,6.26
2023-03-29T05:09:10.242Z,6.25
2023-03-29T05:10:10.054Z,6.22
2023-03-29T05:11:10.123Z,6.25
2023-03-29T05:12:10.083Z,6.22
2023-03-29T05:13:10.005Z,6.25
2023-03-29T05:14:10.029Z,6.22
2023-03-29T05:15:10.032Z,6.21
2023-03-29T05:16:10.032Z,6.22
2023-03-29T05:17:10.153Z,6.21
2023-03-29T05:18:10.052Z,6.16
2023-03-29T05:19:09.983Z,6.14
2023-03-29T05:20:09.981Z,6.13
2023-03-29T05:21:09.972Z,6.11
2023-03-29T05:22:09.928Z,6.10
2023-03-29T05:23:10.028Z,6.09
2023-03-29T05:24:10.049Z,6.11
2023-03-29T05:25:10.226Z,6.10
2023-03-29T05:26:10.096Z,6.10
2023-03-29T05:27:09.947Z,6.09
2023-03-29T05:28:09.900Z,6.09
2023-03-29T05:29:10.041Z,6.09
2023-03-29T05:30:10.110Z,6.10
2023-03-29T05:31:10.199Z,6.11
2023-03-29T05:32:09.942Z,6.13
2023-03-29T05:33:10.031Z,6.13
2023-03-29T05:34:10.009Z,6.14
2023-03-29T05:35:09.850Z,6.13
2023-03-29T05:36:10.274Z,6.14
2023-03-29T05:37:09.793Z,6.14
2023-03-29T05:38:10.058Z,6.16
2023-03-29T05:39:09.815Z,6.19
2023-03-29T05:40:09.752Z,6.18
2023-03-29T05:41:09.751Z,6.21
2023-03-29T05:42:10.028Z,6.21
2023-03-29T05:43:10.315Z,6.21
2023-03-29T05:44:09.820Z,6.26
2023-03-29T05:45:09.786Z,6.28
2023-03-29T05:46:09.740Z,6.28
2023-03-29T05:47:09.797Z,6.29
2023-03-29T05:48:09.737Z,6.30
2023-03-29T05:49:09.664Z,6.32
2023-03-29T05:50:09.700Z,6.33
2023-03-29T05:51:09.669Z,6.36
2023-03-29T05:52:09.636Z,6.38
2023-03-29T05:53:09.638Z,6.40
2023-03-29T05:54:11.150Z,6.43
2023-03-29T05:55:09.597Z,6.44
2023-03-29T05:56:09.823Z,6.44
2023-03-29T05:57:09.693Z,6.48
2023-03-29T05:58:09.570Z,6.50
2023-03-29T05:59:09.706Z,6.50
2023-03-29T06:00:09.640Z,6.53
2023-03-29T06:01:09.595Z,6.54
2023-03-29T06:02:09.591Z,6.54
2023-03-29T06:03:19.948Z,6.56
2023-03-29T06:04:09.726Z,6.58
2023-03-29T06:05:09.650Z,6.62
2023-03-29T06:06:09.728Z,6.61
2023-03-29T06:07:09.490Z,6.65
2023-03-29T06:08:09.557Z,6.66
2023-03-29T06:09:09.524Z,6.69
2023-03-29T06:10:09.898Z,6.71
2023-03-29T06:11:09.799Z,6.73
2023-03-29T06:12:09.473Z,6.76
2023-03-29T06:13:09.442Z,6.79
2023-03-29T06:14:09.653Z,6.81
2023-03-29T06:15:09.441Z,6.80
2023-03-29T06:16:09.571Z,6.83
2023-03-29T06:17:09.468Z,6.87
2023-03-29T06:18:09.466Z,6.87
2023-03-29T06:19:09.414Z,6.90
2023-03-29T06:20:09.584Z,6.91
2023-03-29T06:21:09.498Z,6.94
2023-03-29T06:22:09.369Z,6.95
2023-03-29T06:23:09.364Z,6.97
2023-03-29T06:24:09.653Z,6.99
2023-03-29T06:25:09.355Z,6.99
2023-03-29T06:26:09.775Z,7.02
2023-03-29T06:27:09.416Z,7.02
2023-03-29T06:28:09.294Z,7.05
2023-03-29T06:29:09.280Z,7.07
2023-03-29T06:30:09.311Z,7.07
2023-03-29T06:31:09.298Z,7.09
2023-03-29T06:32:09.415Z,7.12
2023-03-29T06:33:09.356Z,7.12
2023-03-29T06:34:09.446Z,7.15
2023-03-29T06:35:09.254Z,7.15
2023-03-29T06:36:09.416Z,7.16
2023-03-29T06:37:09.293Z,7.19
2023-03-29T06:38:09.203Z,7.19
2023-03-29T06:39:09.538Z,7.22
2023-03-29T06:40:09.528Z,7.23
2023-03-29T06:41:09.368Z,7.26
2023-03-29T06:42:20.076Z,7.27
2023-03-29T06:43:09.675Z,7.32
2023-03-29T06:44:09.269Z,7.34
2023-03-29T06:45:09.357Z,7.37
2023-03-29T06:46:09.193Z,7.40
2023-03-29T06:47:09.096Z,7.42
2023-03-29T06:48:09.150Z,7.44
2023-03-29T06:49:09.253Z,7.49
2023-03-29T06:50:09.046Z,7.49
2023-03-29T06:51:09.365Z,7.50
2023-03-29T06:52:09.477Z,7.53
2023-03-29T06:53:09.095Z,7.55
2023-03-29T06:54:09.243Z,7.55
2023-03-29T06:55:09.042Z,7.58
2023-03-29T06:56:09.451Z,7.59
2023-03-29T06:57:09.081Z,7.59
2023-03-29T06:58:09.014Z,7.62
2023-03-29T06:59:08.968Z,7.66
2023-03-29T07:00:09.248Z,7.66
2023-03-29T07:01:09.181Z,7.67
2023-03-29T07:02:09.088Z,7.72
2023-03-29T07:03:09.117Z,7.77
2023-03-29T07:04:09.023Z,7.82
2023-03-29T07:05:08.967Z,7.84
2023-03-29T07:06:09.128Z,7.90
2023-03-29T07:07:08.904Z,7.93
2023-03-29T07:08:08.958Z,7.97
2023-03-29T07:09:08.895Z,7.96
2023-03-29T07:10:08.937Z,7.99
2023-03-29T07:11:08.910Z,8.02
2023-03-29T07:12:08.906Z,8.02
2023-03-29T07:13:08.873Z,8.04
2023-03-29T07:14:08.857Z,8.03
2023-03-29T07:15:08.935Z,8.04
2023-03-29T07:16:08.996Z,8.08
2023-03-29T07:17:08.914Z,8.08
2023-03-29T07:18:09.085Z,8.08
2023-03-29T07:19:09.054Z,8.10
2023-03-29T07:20:08.959Z,8.11
2023-03-29T07:21:08.752Z,8.14
2023-03-29T07:22:08.777Z,8.14
2023-03-29T07:23:08.979Z,8.12
2023-03-29T07:24:09.138Z,8.15
2023-03-29T07:25:09.035Z,8.17
2023-03-29T07:26:08.769Z,8.21
2023-03-29T07:27:08.888Z,8.21
2023-03-29T07:28:08.750Z,8.20
2023-03-29T07:29:08.787Z,8.22
2023-03-29T07:30:08.788Z,8.22
2023-03-29T07:31:08.800Z,8.26
2023-03-29T07:32:08.700Z,8.29
2023-03-29T07:33:09.014Z,8.32
2023-03-29T07:34:08.720Z,8.37
2023-03-29T07:35:08.633Z,8.39
2023-03-29T07:36:08.722Z,8.44
2023-03-29T07:37:08.623Z,8.47
2023-03-29T07:38:08.596Z,8.51
2023-03-29T07:39:08.588Z,8.55
2023-03-29T07:40:08.563Z,8.65
2023-03-29T07:41:08.678Z,8.68
2023-03-29T07:42:08.751Z,8.71
2023-03-29T07:43:08.552Z,8.72
2023-03-29T07:44:08.737Z,8.75
2023-03-29T07:45:08.806Z,8.73
2023-03-29T07:46:08.600Z,8.71
2023-03-29T07:47:09.102Z,8.71
2023-03-29T07:48:09.137Z,8.72
2023-03-29T07:49:08.497Z,8.72
2023-03-29T07:50:08.496Z,8.72
2023-03-29T07:51:08.507Z,8.72
2023-03-29T07:52:08.618Z,8.71
2023-03-29T07:53:08.460Z,8.69
2023-03-29T07:54:08.489Z,8.71
2023-03-29T07:55:08.439Z,8.71
2023-03-29T07:56:08.618Z,8.72
2023-03-29T07:57:08.439Z,8.72
2023-03-29T07:58:08.473Z,8.72
2023-03-29T07:59:08.549Z,8.75
2023-03-29T08:00:08.468Z,8.78
2023-03-29T08:01:08.440Z,8.81
2023-03-29T08:02:08.363Z,8.86
2023-03-29T08:03:08.673Z,8.93
2023-03-29T08:04:08.520Z,8.97
2023-03-29T08:05:08.390Z,9.04
2023-03-29T08:06:08.344Z,9.05
2023-03-29T08:07:08.355Z,9.06
2023-03-29T08:08:08.298Z,9.12
2023-03-29T08:09:08.273Z,9.15
2023-03-29T08:10:08.296Z,9.16
2023-03-29T08:11:08.264Z,9.18
2023-03-29T08:12:08.396Z,9.24
2023-03-29T08:13:08.269Z,9.27
2023-03-29T08:14:08.457Z,9.30
2023-03-29T08:15:08.395Z,9.34
2023-03-29T08:16:08.290Z,9.38
2023-03-29T08:17:08.349Z,9.40
2023-03-29T08:18:09.319Z,9.42
2023-03-29T08:19:08.819Z,9.43
2023-03-29T08:20:08.373Z,9.49
2023-03-29T08:21:08.466Z,9.50
2023-03-29T08:22:08.350Z,9.58
2023-03-29T08:23:08.276Z,9.64
2023-03-29T08:24:08.283Z,9.67
2023-03-29T08:25:08.146Z,9.71
2023-03-29T08:26:08.165Z,9.64
2023-03-29T08:27:08.120Z,9.66
2023-03-29T08:28:08.314Z,9.64
2023-03-29T08:29:08.142Z,9.67
2023-03-29T08:30:08.680Z,9.60
2023-03-29T08:31:08.075Z,9.52
2023-03-29T08:32:08.246Z,9.49
2023-03-29T08:33:08.366Z,9.49
2023-03-29T08:34:08.070Z,9.39
2023-03-29T08:35:08.261Z,9.28
2023-03-29T08:36:08.184Z,9.20
2023-03-29T08:37:08.167Z,9.05
2023-03-29T08:38:08.165Z,9.01
2023-03-29T08:39:08.470Z,8.97
2023-03-29T08:40:08.507Z,8.94
2023-03-29T08:41:08.116Z,8.90
2023-03-29T08:42:08.019Z,8.86
2023-03-29T08:43:07.970Z,8.78
2023-03-29T08:44:08.768Z,8.72
2023-03-29T08:45:08.656Z,8.66
2023-03-29T08:46:08.278Z,8.58
2023-03-29T08:47:07.989Z,8.63
2023-03-29T08:48:08.192Z,8.66
2023-03-29T08:49:07.925Z,8.71
2023-03-29T08:50:08.176Z,8.76
2023-03-29T08:51:09.951Z,8.83
2023-03-29T08:52:08.074Z,8.88
2023-03-29T08:53:08.039Z,8.91
2023-03-29T08:54:08.254Z,8.94
2023-03-29T08:55:08.052Z,8.99
2023-03-29T08:56:07.824Z,9.02
2023-03-29T08:57:07.873Z,9.06
2023-03-29T08:58:07.801Z,9.15
2023-03-29T08:59:08.027Z,9.16
2023-03-29T09:00:08.503Z,9.18
2023-03-29T09:01:08.078Z,9.18
2023-03-29T09:02:07.965Z,9.24
2023-03-29T09:03:07.897Z,9.34
2023-03-29T09:04:07.939Z,9.46
2023-03-29T09:05:07.754Z,9.57
2023-03-29T09:06:08.313Z,9.61
2023-03-29T09:07:07.750Z,9.66
2023-03-29T09:08:07.948Z,9.75
2023-03-29T09:09:07.680Z,9.83
2023-03-29T09:10:07.871Z,9.93
2023-03-29T09:11:08.095Z,10.00
2023-03-29T09:12:07.947Z,10.14
2023-03-29T09:13:07.747Z,10.26
2023-03-29T09:14:07.672Z,10.36
2023-03-29T09:15:07.639Z,10.42
2023-03-29T09:16:07.714Z,10.39
2023-03-29T09:17:07.641Z,10.40
2023-03-29T09:18:07.843Z,10.44
2023-03-29T09:19:07.778Z,10.53
2023-03-29T09:20:08.073Z,10.58
2023-03-29T09:21:07.596Z,10.58
2023-03-29T09:22:07.673Z,10.58
2023-03-29T09:23:07.664Z,10.60
2023-03-29T09:24:08.029Z,10.63
2023-03-29T09:25:07.882Z,10.68
2023-03-29T09:26:07.609Z,10.74
2023-03-29T09:27:07.655Z,10.74
2023-03-29T09:28:07.601Z,10.77
2023-03-29T09:29:09.537Z,10.88
2023-03-29T09:30:07.710Z,10.99
2023-03-29T09:31:07.665Z,11.02
2023-03-29T09:32:07.503Z,11.02
2023-03-29T09:33:07.734Z,11.13
2023-03-29T09:34:07.447Z,11.25
2023-03-29T09:35:07.718Z,11.28
2023-03-29T09:36:07.496Z,11.41
2023-03-29T09:37:07.429Z,11.56
2023-03-29T09:38:07.437Z,11.61
2023-03-29T09:39:07.803Z,11.67
2023-03-29T09:40:07.600Z,11.68
2023-03-29T09:41:07.362Z,11.70
2023-03-29T09:42:07.443Z,11.75
2023-03-29T09:43:07.348Z,11.71
2023-03-29T09:44:09.398Z,11.62
2023-03-29T09:45:07.677Z,11.65
2023-03-29T09:46:07.620Z,11.70
2023-03-29T09:47:07.564Z,11.77
2023-03-29T09:48:07.358Z,11.67
2023-03-29T09:49:07.575Z,11.67
2023-03-29T09:50:11.879Z,11.62
2023-03-29T09:51:07.494Z,11.49
2023-03-29T09:52:07.277Z,11.50
2023-03-29T09:53:07.256Z,11.57
2023-03-29T09:54:07.363Z,11.61
2023-03-29T09:55:07.238Z,11.62
2023-03-29T09:56:07.246Z,11.71
2023-03-29T09:57:07.257Z,11.77
2023-03-29T09:58:07.230Z,11.82
2023-03-29T09:59:07.365Z,11.78
2023-03-29T10:00:07.230Z,11.85
2023-03-29T10:01:07.355Z,11.93
2023-03-29T10:02:07.388Z,12.02
2023-03-29T10:03:10.036Z,12.05
2023-03-29T10:04:07.403Z,12.05
2023-03-29T10:05:07.167Z,12.20
2023-03-29T10:06:07.530Z,12.31
2023-03-29T10:07:07.162Z,12.41
2023-03-29T10:08:07.129Z,12.45
2023-03-29T10:09:07.084Z,12.45
2023-03-29T10:10:07.125Z,12.48
2023-03-29T10:11:07.197Z,12.37
2023-03-29T10:12:07.110Z,12.26
2023-03-29T10:13:07.116Z,12.20
2023-03-29T10:14:07.080Z,12.23
2023-03-29T10:15:11.706Z,12.27
2023-03-29T10:16:07.183Z,12.41
2023-03-29T10:17:07.622Z,12.52
2023-03-29T10:18:07.109Z,12.71
2023-03-29T10:19:07.094Z,12.92
2023-03-29T10:20:08.202Z,12.93
2023-03-29T10:21:07.041Z,12.93
2023-03-29T10:22:07.572Z,12.93
2023-03-29T10:23:06.986Z,13.07
2023-03-29T10:24:07.121Z,13.30
2023-03-29T10:25:06.950Z,13.51
2023-03-29T10:26:06.957Z,14.10
2023-03-29T10:27:06.917Z,14.38
2023-03-29T10:28:06.990Z,14.61
2023-03-29T10:29:06.980Z,14.78
2023-03-29T10:30:07.066Z,15.08
2023-03-29T10:31:07.027Z,14.95
2023-03-29T10:32:07.048Z,15.02
2023-03-29T10:33:07.083Z,15.09
2023-03-29T10:34:07.029Z,15.09
2023-03-29T10:35:06.877Z,14.94
2023-03-29T10:36:07.459Z,14.91
2023-03-29T10:37:07.060Z,14.93
2023-03-29T10:38:06.934Z,14.52
2023-03-29T10:39:06.960Z,14.39
2023-03-29T10:40:06.887Z,14.62
2023-03-29T10:41:06.925Z,14.90
2023-03-29T10:42:06.829Z,15.12
2023-03-29T10:43:07.161Z,15.15
2023-03-29T10:44:07.099Z,15.35
2023-03-29T10:45:06.742Z,15.28
2023-03-29T10:46:07.009Z,15.21
2023-03-29T10:47:06.773Z,15.20
2023-03-29T10:48:06.995Z,15.30
2023-03-29T10:49:06.803Z,15.33
2023-03-29T10:50:06.697Z,15.20
2023-03-29T10:51:07.234Z,15.26
2023-03-29T10:52:06.709Z,15.15
2023-03-29T10:53:07.067Z,15.30
2023-03-29T10:54:06.734Z,15.61
2023-03-29T10:55:06.847Z,15.82
2023-03-29T10:56:06.676Z,15.89
2023-03-29T10:57:06.722Z,15.64
2023-03-29T10:58:06.653Z,15.28
2023-03-29T10:59:06.616Z,15.09
2023-03-29T11:00:06.778Z,14.91
2023-03-29T11:01:06.869Z,14.93
2023-03-29T11:02:06.617Z,15.08
2023-03-29T11:03:06.724Z,15.15
2023-03-29T11:04:07.008Z,15.30
2023-03-29T11:05:06.551Z,15.39
2023-03-29T11:06:06.834Z,15.45
2023-03-29T11:07:06.705Z,15.42
2023-03-29T11:08:06.779Z,15.43
2023-03-29T11:09:06.497Z,15.33
2023-03-29T11:10:06.779Z,15.39
2023-03-29T11:11:06.698Z,15.35
2023-03-29T11:12:15.618Z,15.21
2023-03-29T11:13:06.735Z,15.15
2023-03-29T11:14:06.433Z,15.20
2023-03-29T11:15:06.608Z,15.17
2023-03-29T11:16:06.462Z,15.36
2023-03-29T11:17:06.493Z,15.63
2023-03-29T11:18:06.849Z,15.52
2023-03-29T11:19:06.531Z,15.48
2023-03-29T11:20:06.392Z,15.38
2023-03-29T11:21:10.324Z,15.33
2023-03-29T11:22:06.395Z,15.30
2023-03-29T11:23:06.402Z,15.31
2023-03-29T11:24:06.389Z,15.39
2023-03-29T11:25:06.398Z,15.33
2023-03-29T11:26:06.367Z,15.30
2023-03-29T11:27:06.344Z,15.41
2023-03-29T11:28:06.347Z,15.48
2023-03-29T11:29:06.312Z,15.79
2023-03-29T11:30:06.321Z,16.12
2023-03-29T11:31:06.747Z,16.22
2023-03-29T11:32:06.277Z,16.20
2023-03-29T11:33:06.340Z,16.22
2023-03-29T11:34:06.288Z,16.25
2023-03-29T11:35:06.247Z,16.35
2023-03-29T11:36:06.359Z,16.55
2023-03-29T11:37:06.242Z,16.74
2023-03-29T11:38:06.226Z,17.08
2023-03-29T11:39:06.237Z,17.30
2023-03-29T11:40:06.183Z,17.11
2023-03-29T11:41:06.366Z,16.78
2023-03-29T11:42:06.211Z,16.63
2023-03-29T11:43:06.138Z,16.26
2023-03-29T11:44:06.123Z,16.03
2023-03-29T11:45:06.171Z,15.89
2023-03-29T11:46:06.178Z,15.75
2023-03-29T11:47:06.163Z,15.60
2023-03-29T11:48:06.198Z,15.46
2023-03-29T11:49:06.141Z,15.36
2023-03-29T11:50:06.125Z,15.39
2023-03-29T11:51:06.145Z,15.49
2023-03-29T11:52:06.145Z,15.76
2023-03-29T11:53:06.085Z,15.88
2023-03-29T11:54:06.124Z,16.40
2023-03-29T11:55:06.063Z,17.00
2023-03-29T11:56:06.054Z,17.04
2023-03-29T11:57:06.076Z,17.26
2023-03-29T11:58:06.009Z,17.79
2023-03-29T11:59:06.025Z,18.15
2023-03-29T12:00:06.021Z,18.24
2023-03-29T12:01:05.968Z,18.00
2023-03-29T12:02:06.008Z,18.03
2023-03-29T12:03:06.020Z,18.04
2023-03-29T12:04:06.036Z,18.06
2023-03-29T12:05:05.991Z,17.92
2023-03-29T12:06:05.979Z,17.62
2023-03-29T12:07:05.948Z,17.51
2023-03-29T12:08:05.911Z,17.41
2023-03-29T12:09:05.886Z,17.29
2023-03-29T12:10:05.902Z,17.11
2023-03-29T12:11:05.874Z,16.92
2023-03-29T12:12:05.894Z,16.78
2023-03-29T12:13:05.871Z,16.74
2023-03-29T12:14:05.855Z,16.89
2023-03-29T12:15:05.832Z,17.08
2023-03-29T12:16:05.839Z,17.08
2023-03-29T12:17:05.841Z,17.15
2023-03-29T12:18:05.876Z,17.32
2023-03-29T12:19:05.810Z,17.08
2023-03-29T12:20:05.793Z,16.98
2023-03-29T12:21:05.950Z,16.95
2023-03-29T12:22:05.776Z,17.11
2023-03-29T12:23:05.819Z,17.15
2023-03-29T12:24:05.809Z,16.92
2023-03-29T12:25:05.743Z,16.80
2023-03-29T12:26:05.733Z,16.55
2023-03-29T12:27:05.714Z,16.41
2023-03-29T12:28:05.758Z,16.26
2023-03-29T12:29:05.853Z,16.20
2023-03-29T12:30:05.742Z,16.15
2023-03-29T12:31:05.675Z,16.16
2023-03-29T12:32:05.764Z,16.14
2023-03-29T12:33:05.965Z,16.23
2023-03-29T12:34:05.651Z,16.15
2023-03-29T12:35:05.735Z,16.18
2023-03-29T12:36:05.869Z,16.30
2023-03-29T12:37:05.724Z,16.50
2023-03-29T12:38:05.786Z,16.44
2023-03-29T12:39:05.673Z,16.40
2023-03-29T12:40:05.734Z,16.40
2023-03-29T12:41:05.636Z,16.27
2023-03-29T12:42:05.764Z,16.30
2023-03-29T12:43:05.777Z,16.35
2023-03-29T12:44:05.540Z,16.26
2023-03-29T12:45:05.694Z,16.31
2023-03-29T12:46:05.822Z,16.33
2023-03-29T12:47:05.638Z,16.27
2023-03-29T12:48:05.713Z,16.26
2023-03-29T12:49:05.917Z,16.20
2023-03-29T12:50:05.536Z,15.88
2023-03-29T12:51:05.481Z,15.81
2023-03-29T12:52:05.472Z,15.68
2023-03-29T12:53:05.518Z,15.61
2023-03-29T12:54:05.711Z,15.59
2023-03-29T12:55:05.488Z,15.59
2023-03-29T12:56:05.843Z,15.64
2023-03-29T12:57:05.516Z,15.67
2023-03-29T12:58:05.457Z,15.78
2023-03-29T12:59:05.401Z,15.66
2023-03-29T13:00:05.446Z,15.74
2023-03-29T13:01:06.162Z,15.79
2023-03-29T13:02:05.533Z,15.84
2023-03-29T13:03:05.400Z,15.94
2023-03-29T13:04:05.476Z,15.97
2023-03-29T13:05:05.605Z,16.01
2023-03-29T13:06:05.579Z,16.15
2023-03-29T13:07:05.311Z,16.22
2023-03-29T13:08:05.338Z,16.53
2023-03-29T13:09:05.643Z,16.77
2023-03-29T13:10:05.406Z,17.26